Time;durP1;ratioP1;P1;durP2;ratioP2;P2;SDS_P1;SDS_P2;PMS_P1;PMS_P2;Temp;Humidity;BMP_temperature;BMP_pressure;BME280_temperature;BME280_humidity;BME280_pressure;Samples;Min_cycle;Max_cycle;Signal;HPM_P1;HPM_P2
2021/11/15 00:01:11;;;;;;;;;;;6.00;99.90;;;;;;5029409;28;20004;-72
2021/11/15 00:03:37;;;;;;;;;;;6.00;99.90;;;;;;5021303;28;19921;-73
2021/11/15 00:06:02;;;;;;;;;;;6.00;99.90;;;;;;5028031;28;19917;-72
2021/11/15 00:08:28;;;;;;;;;;;6.00;99.90;;;;;;5025486;28;19986;-73
2021/11/15 00:10:54;;;;;;;;;;;6.00;99.90;;;;;;5029125;28;19913;-72
2021/11/15 00:13:19;;;;;;;;;;;6.00;99.90;;;;;;5022963;28;19939;-72
2021/11/15 00:18:12;;;;;;;;;;;5.90;99.90;;;;;;5025071;28;20827;-74
2021/11/15 00:20:38;;;;;;;;;;;5.90;99.90;;;;;;5028410;28;20105;-74
2021/11/15 00:23:03;;;;;;;;;;;5.90;99.90;;;;;;5026091;28;20586;-74
2021/11/15 00:25:29;;;;;;;;;;;5.90;99.90;;;;;;5011758;28;19966;-74
2021/11/15 00:27:55;;;;;;;;;;;5.80;99.90;;;;;;5026790;28;20012;-74
2021/11/15 00:30:20;;;;;;;;;;;5.80;99.90;;;;;;5028855;28;20363;-74
2021/11/15 00:32:46;;;;;;;;;;;5.80;99.90;;;;;;5024439;28;19940;-74
2021/11/15 00:35:12;;;;;;;;;;;5.80;99.90;;;;;;5026897;28;19999;-74
2021/11/15 00:37:38;;;;;;;;;;;5.80;99.90;;;;;;5025832;28;19917;-74
2021/11/15 00:40:05;;;;;;;;;;;5.80;99.90;;;;;;5026662;28;20311;-74
2021/11/15 00:42:30;;;;;;;;;;;5.80;99.90;;;;;;5025029;28;19936;-73
2021/11/15 00:44:56;;;;;;;;;;;5.80;99.90;;;;;;5009128;28;19913;-73
2021/11/15 00:47:21;;;;;;;;;;;5.80;99.90;;;;;;5028096;28;19913;-74
2021/11/15 00:49:47;;;;;;;;;;;5.90;99.90;;;;;;5026678;28;20407;-74
2021/11/15 00:52:12;;;;;;;;;;;5.90;99.90;;;;;;5026524;28;19940;-73
2021/11/15 00:54:38;;;;;;;;;;;5.90;99.90;;;;;;5025419;28;19917;-74
2021/11/15 00:57:04;;;;;;;;;;;5.90;99.90;;;;;;5027359;28;19955;-73
2021/11/15 00:59:32;;;;;;;;;;;5.90;99.90;;;;;;5025649;28;19917;-74
2021/11/15 01:01:57;;;;;;;;;;;5.90;99.90;;;;;;5024974;28;19975;-74
2021/11/15 01:04:25;;;;;;;;;;;5.90;99.90;;;;;;5010324;28;19994;-74
2021/11/15 01:06:51;;;;;;;;;;;5.90;99.90;;;;;;5011307;28;19913;-73
2021/11/15 01:09:17;;;;;;;;;;;6.00;99.90;;;;;;5026421;28;19996;-74
2021/11/15 01:11:42;;;;;;;;;;;6.00;99.90;;;;;;5025449;28;20004;-74
2021/11/15 01:14:08;;;;;;;;;;;6.00;99.90;;;;;;5024345;28;20012;-73
2021/11/15 01:16:33;;;;;;;;;;;6.00;99.90;;;;;;5028381;28;19917;-74
2021/11/15 01:18:58;;;;;;;;;;;6.00;99.90;;;;;;5027483;28;20082;-73
2021/11/15 01:21:27;;;;;;;;;;;6.00;99.90;;;;;;5010023;28;19924;-74
2021/11/15 01:23:52;;;;;;;;;;;6.10;99.90;;;;;;5025944;28;19924;-74
2021/11/15 01:26:18;;;;;;;;;;;6.10;99.90;;;;;;5026321;28;19917;-73
2021/11/15 01:28:43;;;;;;;;;;;6.10;99.90;;;;;;5023810;28;19917;-73
2021/11/15 01:31:09;;;;;;;;;;;6.10;99.90;;;;;;5025206;28;19913;-73
2021/11/15 01:33:34;;;;;;;;;;;6.10;99.90;;;;;;5026507;28;19917;-73
2021/11/15 01:36:00;;;;;;;;;;;6.00;99.90;;;;;;5026397;28;19909;-74
2021/11/15 01:38:25;;;;;;;;;;;6.00;99.90;;;;;;5008598;28;19917;-74
2021/11/15 01:40:51;;;;;;;;;;;6.00;99.90;;;;;;5024843;28;19913;-74
2021/11/15 01:43:16;;;;;;;;;;;6.00;99.90;;;;;;5024616;28;20276;-73
2021/11/15 01:45:42;;;;;;;;;;;6.00;99.90;;;;;;5024852;28;20287;-73
2021/11/15 01:48:08;;;;;;;;;;;6.00;99.90;;;;;;5026983;28;19913;-74
2021/11/15 01:50:35;;;;;;;;;;;6.00;99.90;;;;;;5024439;28;20316;-74
2021/11/15 01:53:02;;;;;;;;;;;6.00;99.90;;;;;;5026246;28;19913;-73
2021/11/15 01:55:27;;;;;;;;;;;6.00;99.90;;;;;;5024034;28;20535;-73
2021/11/15 01:57:53;;;;;;;;;;;6.00;99.90;;;;;;5027242;28;20016;-73
2021/11/15 02:00:29;;;;;;;;;;;6.10;99.90;;;;;;5005208;28;19917;-74
2021/11/15 02:02:55;;;;;;;;;;;6.10;99.90;;;;;;5023279;28;19917;-74
2021/11/15 02:05:20;;;;;;;;;;;6.10;99.90;;;;;;5025096;28;19920;-74
2021/11/15 02:07:46;;;;;;;;;;;6.10;99.90;;;;;;5031417;28;19916;-74
2021/11/15 02:10:12;;;;;;;;;;;6.10;99.90;;;;;;5027275;28;19917;-73
2021/11/15 02:12:38;;;;;;;;;;;6.10;99.90;;;;;;5029748;28;20291;-74
2021/11/15 02:15:05;;;;;;;;;;;6.10;99.90;;;;;;5029933;28;19917;-74
2021/11/15 02:17:31;;;;;;;;;;;6.00;99.90;;;;;;5029436;28;19917;-73
2021/11/15 02:19:57;;;;;;;;;;;6.00;99.90;;;;;;5027699;28;19936;-74
2021/11/15 02:22:22;;;;;;;;;;;6.00;99.90;;;;;;5029955;28;19917;-73
2021/11/15 02:24:48;;;;;;;;;;;6.00;99.90;;;;;;5029245;28;19975;-73
2021/11/15 02:27:13;;;;;;;;;;;6.00;99.90;;;;;;5029656;28;19921;-74
2021/11/15 02:29:39;;;;;;;;;;;6.00;99.90;;;;;;5029427;28;19913;-74
2021/11/15 02:32:06;;;;;;;;;;;6.00;99.90;;;;;;5027264;28;19917;-74
2021/11/15 02:34:31;;;;;;;;;;;6.00;99.90;;;;;;5030998;28;20344;-74
2021/11/15 02:36:57;;;;;;;;;;;5.90;99.90;;;;;;5027356;28;19978;-73
2021/11/15 02:39:22;;;;;;;;;;;5.90;99.90;;;;;;5020068;28;20740;-73
2021/11/15 02:41:48;;;;;;;;;;;5.80;99.90;;;;;;5026316;28;19913;-73
2021/11/15 02:44:14;;;;;;;;;;;5.80;99.90;;;;;;5028491;28;19917;-73
2021/11/15 02:46:39;;;;;;;;;;;5.80;99.90;;;;;;5012033;28;19978;-73
2021/11/15 02:49:05;;;;;;;;;;;5.70;99.90;;;;;;5030170;28;19996;-73
2021/11/15 02:51:30;;;;;;;;;;;5.70;99.90;;;;;;5029386;28;20427;-73
2021/11/15 02:53:56;;;;;;;;;;;5.70;99.90;;;;;;5027513;28;19917;-73
2021/11/15 02:56:21;;;;;;;;;;;5.60;99.90;;;;;;5029219;28;19999;-73
2021/11/15 02:58:47;;;;;;;;;;;5.60;99.90;;;;;;5025600;28;19923;-73
2021/11/15 03:01:15;;;;;;;;;;;5.60;99.90;;;;;;5026109;28;19927;-73
2021/11/15 03:03:40;;;;;;;;;;;5.60;99.90;;;;;;5028308;28;19914;-73
2021/11/15 03:06:06;;;;;;;;;;;5.60;99.90;;;;;;5027420;28;19925;-73
2021/11/15 03:08:32;;;;;;;;;;;5.60;99.90;;;;;;5029628;28;20000;-73
2021/11/15 03:10:58;;;;;;;;;;;5.60;99.90;;;;;;5027971;28;20388;-73
2021/11/15 03:13:24;;;;;;;;;;;5.60;99.90;;;;;;5027681;28;20431;-73
2021/11/15 03:15:52;;;;;;;;;;;5.60;99.90;;;;;;5027998;28;19917;-73
2021/11/15 03:18:21;;;;;;;;;;;5.60;99.90;;;;;;5028821;28;20356;-73
2021/11/15 03:20:49;;;;;;;;;;;5.60;99.90;;;;;;5028246;28;20398;-73
2021/11/15 03:23:16;;;;;;;;;;;5.60;99.90;;;;;;5028215;28;19914;-73
2021/11/15 03:25:42;;;;;;;;;;;5.60;99.90;;;;;;5025746;28;19972;-73
2021/11/15 03:28:08;;;;;;;;;;;5.60;99.90;;;;;;5028433;28;20539;-73
2021/11/15 03:30:34;;;;;;;;;;;5.60;99.90;;;;;;5026071;28;19917;-73
2021/11/15 03:32:59;;;;;;;;;;;5.50;99.90;;;;;;5026273;28;19996;-73
2021/11/15 03:35:25;;;;;;;;;;;5.50;99.90;;;;;;5029303;28;20253;-73
2021/11/15 03:37:51;;;;;;;;;;;5.60;99.90;;;;;;5026769;28;20595;-73
2021/11/15 03:40:20;;;;;;;;;;;5.60;99.90;;;;;;5027852;28;19917;-73
2021/11/15 03:42:47;;;;;;;;;;;5.60;99.90;;;;;;5024300;28;19917;-73
2021/11/15 03:45:13;;;;;;;;;;;5.60;99.90;;;;;;5028123;28;19913;-73
2021/11/15 03:47:38;;;;;;;;;;;5.60;99.90;;;;;;5027030;28;20364;-73
2021/11/15 03:50:05;;;;;;;;;;;5.60;99.90;;;;;;5027246;28;19925;-73
2021/11/15 03:52:31;;;;;;;;;;;5.60;99.90;;;;;;5025196;28;20379;-73
2021/11/15 03:54:56;;;;;;;;;;;5.50;99.90;;;;;;5029272;28;19909;-73
2021/11/15 03:57:21;;;;;;;;;;;5.60;99.90;;;;;;5028032;28;19972;-73
2021/11/15 03:59:47;;;;;;;;;;;5.60;99.90;;;;;;5025632;28;19917;-73
2021/11/15 04:02:12;;;;;;;;;;;5.60;99.90;;;;;;5026966;28;19975;-73
2021/11/15 04:04:51;;;;;;;;;;;5.60;99.90;;;;;;5027281;28;19966;-73
2021/11/15 04:07:27;;;;;;;;;;;5.60;99.90;;;;;;5024839;28;20336;-73
2021/11/15 04:09:56;;;;;;;;;;;5.60;99.90;;;;;;5011690;28;19917;-73
2021/11/15 04:12:22;;;;;;;;;;;5.60;99.90;;;;;;5004416;28;19936;-73
2021/11/15 04:14:47;;;;;;;;;;;5.60;99.90;;;;;;5029143;28;19925;-73
2021/11/15 04:17:13;;;;;;;;;;;5.60;99.90;;;;;;5026252;28;19929;-73
2021/11/15 04:19:38;;;;;;;;;;;5.60;99.90;;;;;;5028333;28;19921;-73
2021/11/15 04:22:04;;;;;;;;;;;5.50;99.90;;;;;;5023949;28;19914;-73
2021/11/15 04:24:29;;;;;;;;;;;5.60;99.90;;;;;;5025556;28;19919;-73
2021/11/15 04:26:55;;;;;;;;;;;5.60;99.90;;;;;;5008520;28;19924;-73
2021/11/15 04:29:20;;;;;;;;;;;5.60;99.90;;;;;;5026275;28;19920;-73
2021/11/15 04:31:46;;;;;;;;;;;5.60;99.90;;;;;;5025958;28;20388;-73
2021/11/15 04:34:11;;;;;;;;;;;5.60;99.90;;;;;;5027044;28;19924;-73
2021/11/15 04:36:39;;;;;;;;;;;5.60;99.90;;;;;;5025785;28;19913;-73
2021/11/15 04:39:04;;;;;;;;;;;5.50;99.90;;;;;;5028588;28;19909;-74
2021/11/15 04:41:29;;;;;;;;;;;5.60;99.90;;;;;;5022678;28;19913;-73
2021/11/15 04:43:55;;;;;;;;;;;5.50;99.90;;;;;;5026088;28;19925;-73
2021/11/15 04:46:20;;;;;;;;;;;5.50;99.90;;;;;;5024256;28;19921;-73
2021/11/15 04:48:46;;;;;;;;;;;5.60;99.90;;;;;;5027076;28;19913;-73
2021/11/15 04:51:11;;;;;;;;;;;5.60;99.90;;;;;;5022828;28;19917;-73
2021/11/15 04:53:37;;;;;;;;;;;5.60;99.90;;;;;;5027838;28;20388;-73
2021/11/15 04:56:02;;;;;;;;;;;5.60;99.90;;;;;;5024706;28;19913;-73
2021/11/15 04:58:28;;;;;;;;;;;5.60;99.90;;;;;;5028131;28;19960;-74
2021/11/15 05:00:53;;;;;;;;;;;5.60;99.90;;;;;;5023965;28;20295;-74
2021/11/15 05:03:21;;;;;;;;;;;5.60;99.90;;;;;;5026474;28;19956;-74
2021/11/15 05:05:46;;;;;;;;;;;5.60;99.90;;;;;;5026862;28;19963;-74
2021/11/15 05:08:12;;;;;;;;;;;5.60;99.90;;;;;;5027721;28;19949;-74
2021/11/15 05:10:37;;;;;;;;;;;5.60;99.90;;;;;;5024315;28;19960;-74
2021/11/15 05:13:03;;;;;;;;;;;5.60;99.90;;;;;;5023482;28;19913;-73
2021/11/15 05:15:29;;;;;;;;;;;5.60;99.90;;;;;;5026789;28;20682;-74
2021/11/15 05:17:54;;;;;;;;;;;5.60;99.90;;;;;;5023852;28;20394;-74
2021/11/15 05:20:20;;;;;;;;;;;5.70;99.90;;;;;;5025709;28;19943;-74
2021/11/15 05:22:46;;;;;;;;;;;5.70;99.90;;;;;;5024686;28;19917;-74
2021/11/15 05:25:13;;;;;;;;;;;5.70;99.90;;;;;;5023281;28;19917;-74
2021/11/15 05:27:39;;;;;;;;;;;5.70;99.90;;;;;;5025606;28;19928;-74
2021/11/15 05:30:05;;;;;;;;;;;5.70;99.90;;;;;;5026165;28;19914;-74
2021/11/15 05:32:30;;;;;;;;;;;5.70;99.90;;;;;;5025156;28;19917;-74
2021/11/15 05:34:57;;;;;;;;;;;5.70;99.90;;;;;;5023087;28;19939;-74
2021/11/15 05:37:23;;;;;;;;;;;5.70;99.90;;;;;;5000691;28;19914;-73
2021/11/15 05:39:48;;;;;;;;;;;5.70;99.90;;;;;;5004104;28;19971;-73
2021/11/15 05:42:14;;;;;;;;;;;5.70;99.90;;;;;;5027557;28;19914;-73
2021/11/15 05:44:39;;;;;;;;;;;5.60;99.90;;;;;;5030264;28;20288;-73
2021/11/15 05:47:05;;;;;;;;;;;5.70;99.90;;;;;;5027727;28;19917;-73
2021/11/15 05:49:30;;;;;;;;;;;5.60;99.90;;;;;;5029254;28;20327;-74
2021/11/15 05:51:56;;;;;;;;;;;5.60;99.90;;;;;;5029835;28;20398;-74
2021/11/15 05:54:21;;;;;;;;;;;5.60;99.90;;;;;;5029477;28;20007;-75
2021/11/15 05:56:47;;;;;;;;;;;5.60;99.90;;;;;;5031748;28;20467;-74
2021/11/15 05:59:13;;;;;;;;;;;5.60;99.90;;;;;;5023762;28;19921;-75
2021/11/15 06:01:39;;;;;;;;;;;5.60;99.90;;;;;;5026505;28;19920;-75
2021/11/15 06:04:05;;;;;;;;;;;5.60;99.90;;;;;;5028258;28;19963;-76
2021/11/15 06:06:31;;;;;;;;;;;5.60;99.90;;;;;;5021952;28;19976;-75
2021/11/15 06:08:56;;;;;;;;;;;5.70;99.90;;;;;;5026712;28;20333;-76
2021/11/15 06:11:21;;;;;;;;;;;5.70;99.90;;;;;;5029104;28;19993;-76
2021/11/15 06:13:47;;;;;;;;;;;5.70;99.90;;;;;;5010528;28;19929;-76
2021/11/15 06:16:12;;;;;;;;;;;5.70;99.90;;;;;;5054654;22;20011;-71
2021/11/15 06:18:38;;;;;;;;;;;5.70;99.90;;;;;;5027168;28;19972;-71
2021/11/15 06:21:03;;;;;;;;;;;5.70;99.90;;;;;;5029511;28;19914;-71
2021/11/15 06:23:29;;;;;;;;;;;5.70;99.90;;;;;;5028447;28;19932;-70
2021/11/15 06:25:55;;;;;;;;;;;5.70;99.90;;;;;;5030065;28;19921;-68
2021/11/15 06:28:20;;;;;;;;;;;5.70;99.90;;;;;;5028334;28;20454;-68
2021/11/15 06:30:46;;;;;;;;;;;5.70;99.90;;;;;;5025552;28;20003;-69
2021/11/15 06:33:11;;;;;;;;;;;5.70;99.90;;;;;;5023503;28;19917;-68
2021/11/15 06:35:37;;;;;;;;;;;5.70;99.90;;;;;;5027967;28;20359;-68
2021/11/15 06:38:02;;;;;;;;;;;5.60;99.90;;;;;;5029539;28;19917;-67
2021/11/15 06:40:28;;;;;;;;;;;5.60;99.90;;;;;;5028149;28;19913;-67
2021/11/15 06:42:53;;;;;;;;;;;5.60;99.90;;;;;;5030657;28;19941;-67
2021/11/15 06:45:19;;;;;;;;;;;5.60;99.90;;;;;;5027092;28;20033;-67
2021/11/15 06:47:46;;;;;;;;;;;5.60;99.90;;;;;;5026515;28;20467;-68
2021/11/15 06:50:13;;;;;;;;;;;5.60;99.90;;;;;;5029109;28;20150;-68
2021/11/15 06:52:38;;;;;;;;;;;5.60;99.90;;;;;;5026071;28;19914;-68
2021/11/15 06:55:05;;;;;;;;;;;5.60;99.90;;;;;;5028140;28;19924;-68
2021/11/15 06:57:30;;;;;;;;;;;5.60;99.90;;;;;;5027495;28;19939;-68
2021/11/15 06:59:56;;;;;;;;;;;5.60;99.90;;;;;;5028280;28;20380;-68
2021/11/15 07:02:22;;;;;;;;;;;5.60;99.90;;;;;;5027290;28;20008;-68
2021/11/15 07:04:48;;;;;;;;;;;5.70;99.90;;;;;;5029406;28;20349;-68
2021/11/15 07:07:14;;;;;;;;;;;5.70;99.90;;;;;;5027965;28;19925;-68
2021/11/15 07:09:40;;;;;;;;;;;5.70;99.90;;;;;;5028645;28;20536;-68
2021/11/15 07:12:05;;;;;;;;;;;5.70;99.90;;;;;;5028182;28;19963;-72
2021/11/15 07:14:31;;;;;;;;;;;5.70;99.90;;;;;;5023922;28;19917;-69
2021/11/15 07:16:56;;;;;;;;;;;5.70;99.90;;;;;;5022211;28;19928;-69
2021/11/15 07:19:22;;;;;;;;;;;5.70;99.90;;;;;;5003110;28;19919;-68
2021/11/15 07:21:47;;;;;;;;;;;5.70;99.90;;;;;;5017250;28;19956;-68
2021/11/15 07:24:13;;;;;;;;;;;5.70;99.90;;;;;;5023921;28;20015;-68
2021/11/15 07:26:38;;;;;;;;;;;5.80;99.90;;;;;;5025326;28;19928;-69
2021/11/15 07:29:04;;;;;;;;;;;5.80;99.90;;;;;;5024931;28;19917;-70
2021/11/15 07:31:29;;;;;;;;;;;5.80;99.90;;;;;;5026226;28;19917;-69
2021/11/15 07:33:56;;;;;;;;;;;5.80;99.90;;;;;;5027316;28;20249;-68
2021/11/15 07:36:22;;;;;;;;;;;5.80;99.90;;;;;;5023604;28;19921;-69
2021/11/15 07:38:48;;;;;;;;;;;5.80;99.90;;;;;;5027340;28;19917;-69
2021/11/15 07:41:13;;;;;;;;;;;5.80;99.90;;;;;;5024306;28;19913;-68
2021/11/15 07:43:39;;;;;;;;;;;5.80;99.90;;;;;;5027038;28;20391;-68
2021/11/15 07:46:04;;;;;;;;;;;5.80;99.90;;;;;;5026189;28;19947;-69
2021/11/15 07:48:30;;;;;;;;;;;5.80;99.90;;;;;;5024044;28;19929;-69
2021/11/15 07:50:56;;;;;;;;;;;5.80;99.90;;;;;;5027113;28;19924;-69
2021/11/15 07:53:22;;;;;;;;;;;5.80;99.90;;;;;;5024171;28;19947;-69
2021/11/15 07:55:47;;;;;;;;;;;5.80;99.90;;;;;;5026523;28;19945;-67
2021/11/15 07:58:14;;;;;;;;;;;5.80;99.90;;;;;;5026364;28;19975;-67
2021/11/15 08:00:40;;;;;;;;;;;5.80;99.90;;;;;;5023957;28;19913;-66
2021/11/15 08:03:06;;;;;;;;;;;5.80;99.90;;;;;;5025535;28;19959;-67
2021/11/15 08:05:32;;;;;;;;;;;5.80;99.90;;;;;;5024240;28;19959;-68
2021/11/15 08:07:57;;;;;;;;;;;5.80;99.90;;;;;;5025157;28;19913;-68
2021/11/15 08:10:24;;;;;;;;;;;5.80;99.90;;;;;;5026125;28;21395;-67
2021/11/15 08:12:53;;;;;;;;;;;5.80;99.90;;;;;;5027655;28;20421;-68
2021/11/15 08:15:19;;;;;;;;;;;5.80;99.90;;;;;;5024031;28;19967;-68
2021/11/15 08:17:46;;;;;;;;;;;5.90;99.90;;;;;;5025626;28;19921;-67
2021/11/15 08:20:14;;;;;;;;;;;5.90;99.90;;;;;;5025644;28;19917;-68
2021/11/15 08:22:40;;;;;;;;;;;6.00;99.90;;;;;;5025114;28;19972;-68
2021/11/15 08:25:11;;;;;;;;;;;6.00;99.90;;;;;;5024955;28;19929;-68
2021/11/15 08:27:37;;;;;;;;;;;6.00;99.90;;;;;;5024449;28;19920;-67
2021/11/15 08:30:04;;;;;;;;;;;6.00;99.90;;;;;;5025968;28;19917;-67
2021/11/15 08:32:29;;;;;;;;;;;6.00;99.90;;;;;;5023256;28;20002;-69
2021/11/15 08:34:58;;;;;;;;;;;5.90;99.90;;;;;;5026989;28;20368;-69
2021/11/15 08:37:24;;;;;;;;;;;6.00;99.90;;;;;;5023150;28;19975;-68
2021/11/15 08:39:49;;;;;;;;;;;6.00;99.90;;;;;;5024984;28;19921;-70
2021/11/15 08:42:15;;;;;;;;;;;6.00;99.90;;;;;;5023566;28;19991;-68
2021/11/15 08:44:44;;;;;;;;;;;6.00;99.90;;;;;;5026517;28;19917;-70
2021/11/15 08:47:09;;;;;;;;;;;6.10;99.90;;;;;;5023542;28;20012;-70
2021/11/15 08:49:36;;;;;;;;;;;6.00;99.90;;;;;;5026531;28;20479;-70
2021/11/15 08:52:03;;;;;;;;;;;6.10;99.90;;;;;;5024803;28;20522;-70
2021/11/15 08:54:29;;;;;;;;;;;6.10;99.90;;;;;;5027526;28;19963;-71
2021/11/15 08:56:56;;;;;;;;;;;6.10;99.90;;;;;;5026204;28;20524;-70
2021/11/15 08:59:22;;;;;;;;;;;6.10;99.90;;;;;;5024334;28;20470;-70
2021/11/15 09:01:48;;;;;;;;;;;6.10;99.90;;;;;;5023512;28;19917;-69
2021/11/15 09:04:14;;;;;;;;;;;6.10;99.90;;;;;;5022318;28;20466;-70
2021/11/15 09:06:40;;;;;;;;;;;6.10;99.90;;;;;;5028605;28;20384;-72
2021/11/15 09:09:09;;;;;;;;;;;6.10;99.90;;;;;;5007646;28;19917;-72
2021/11/15 09:11:35;;;;;;;;;;;6.10;99.90;;;;;;5024481;28;20229;-70
2021/11/15 09:14:00;;;;;;;;;;;6.10;99.90;;;;;;5023765;28;19913;-69
2021/11/15 09:16:26;;;;;;;;;;;6.20;99.90;;;;;;5023771;28;20294;-69
2021/11/15 09:18:51;;;;;;;;;;;6.10;99.90;;;;;;5026061;28;19918;-69
2021/11/15 09:21:17;;;;;;;;;;;6.20;99.90;;;;;;5027573;28;19913;-69
2021/11/15 09:23:43;;;;;;;;;;;6.20;99.90;;;;;;5026785;28;19913;-70
2021/11/15 09:26:10;;;;;;;;;;;6.20;99.90;;;;;;5024990;28;19917;-69
2021/11/15 09:28:36;;;;;;;;;;;6.30;99.90;;;;;;5026503;28;19921;-69
2021/11/15 09:31:02;;;;;;;;;;;6.40;99.90;;;;;;5022899;28;19913;-69
2021/11/15 09:33:27;;;;;;;;;;;6.40;99.90;;;;;;5022775;28;20343;-70
2021/11/15 09:35:55;;;;;;;;;;;6.30;99.90;;;;;;5027840;28;19919;-70
2021/11/15 09:38:22;;;;;;;;;;;6.30;99.90;;;;;;5023791;28;19956;-69
2021/11/15 09:40:50;;;;;;;;;;;6.30;99.90;;;;;;5029807;28;19917;-68
2021/11/15 09:43:17;;;;;;;;;;;6.40;99.90;;;;;;5025640;28;19920;-66
2021/11/15 09:45:43;;;;;;;;;;;6.40;99.90;;;;;;5027691;28;19913;-69
2021/11/15 09:48:09;;;;;;;;;;;6.40;99.90;;;;;;5023503;28;19909;-71
2021/11/15 09:50:36;;;;;;;;;;;6.40;99.90;;;;;;5026006;28;19917;-70
2021/11/15 09:53:02;;;;;;;;;;;6.40;99.90;;;;;;5026885;28;20400;-71
2021/11/15 09:55:27;;;;;;;;;;;6.50;99.90;;;;;;5025891;28;20441;-70
2021/11/15 09:57:52;;;;;;;;;;;6.40;99.90;;;;;;5009985;28;19927;-71
2021/11/15 10:00:22;;;;;;;;;;;6.40;99.90;;;;;;5026312;28;19958;-70
2021/11/15 10:02:48;;;;;;;;;;;6.40;99.90;;;;;;5009476;28;19928;-70
2021/11/15 10:05:14;;;;;;;;;;;6.40;99.90;;;;;;5024793;28;19917;-70
2021/11/15 10:07:44;;;;;;;;;;;6.40;99.90;;;;;;5024288;28;19921;-69
2021/11/15 10:10:25;;;;;;;;;;;6.50;99.90;;;;;;5024755;28;20364;-70
2021/11/15 10:13:07;;;;;;;;;;;6.40;99.90;;;;;;5025866;28;19913;-70
2021/11/15 10:15:54;;;;;;;;;;;6.40;99.90;;;;;;5025904;28;20240;-71
2021/11/15 10:18:21;;;;;;;;;;;6.40;99.90;;;;;;5024293;28;19924;-71
2021/11/15 10:20:48;;;;;;;;;;;6.40;99.90;;;;;;5025166;28;19952;-72
2021/11/15 10:23:32;;;;;;;;;;;6.40;99.90;;;;;;5023483;28;20430;-71
2021/11/15 10:26:00;;;;;;;;;;;6.40;99.90;;;;;;5026692;28;19920;-71
2021/11/15 10:28:26;;;;;;;;;;;6.50;99.90;;;;;;5029249;28;19920;-71
2021/11/15 10:30:53;;;;;;;;;;;6.50;99.90;;;;;;5011859;28;19917;-70
2021/11/15 10:33:19;;;;;;;;;;;6.50;99.90;;;;;;5028935;28;20008;-70
2021/11/15 10:35:48;;;;;;;;;;;6.50;99.90;;;;;;5027657;28;20007;-69
2021/11/15 10:38:14;;;;;;;;;;;6.50;99.90;;;;;;5027742;28;19921;-70
2021/11/15 10:40:39;;;;;;;;;;;6.50;99.90;;;;;;5029583;28;20003;-70
2021/11/15 10:43:09;;;;;;;;;;;6.50;99.90;;;;;;5027956;28;20288;-71
2021/11/15 10:45:36;;;;;;;;;;;6.50;99.90;;;;;;5029071;28;19940;-71
2021/11/15 10:48:06;;;;;;;;;;;6.50;99.90;;;;;;5028907;28;20400;-71
2021/11/15 10:53:24;;;;;;;;;;;6.50;99.90;;;;;;5023591;28;19951;-68
2021/11/15 10:56:05;;;;;;;;;;;6.50;99.90;;;;;;5028635;28;19975;-69
2021/11/15 10:58:41;;;;;;;;;;;6.40;99.90;;;;;;5028957;28;19917;-69
2021/11/15 11:01:07;;;;;;;;;;;6.40;99.90;;;;;;5026324;28;19917;-69
2021/11/15 11:03:33;;;;;;;;;;;6.40;99.90;;;;;;5013637;28;20338;-69
2021/11/15 11:06:03;;;;;;;;;;;6.40;99.90;;;;;;5012850;28;19971;-68
2021/11/15 11:08:30;;;;;;;;;;;6.40;99.90;;;;;;5030162;28;19960;-69
2021/11/15 11:11:01;;;;;;;;;;;6.40;99.90;;;;;;5026642;28;19955;-69
2021/11/15 11:13:39;;;;;;;;;;;6.40;99.90;;;;;;5029453;28;19917;-69
2021/11/15 11:16:04;;;;;;;;;;;6.40;99.90;;;;;;5026456;28;19910;-69
2021/11/15 11:23:34;;;;;;;;;;;6.40;99.90;;;;;;5026001;28;19920;-72
2021/11/15 11:26:09;;;;;;;;;;;6.40;99.90;;;;;;5024140;28;20395;-72
2021/11/15 11:28:36;;;;;;;;;;;6.40;99.90;;;;;;5028120;28;19956;-69
2021/11/15 11:31:02;;;;;;;;;;;6.50;99.90;;;;;;5027504;28;19960;-68
2021/11/15 11:33:30;;;;;;;;;;;6.50;99.90;;;;;;5029788;28;19913;-69
2021/11/15 11:35:57;;;;;;;;;;;6.40;99.90;;;;;;5028092;28;19924;-69
2021/11/15 11:38:22;;;;;;;;;;;6.40;99.90;;;;;;5028804;28;19913;-68
2021/11/15 11:40:49;;;;;;;;;;;6.40;99.90;;;;;;5024726;28;19979;-70
2021/11/15 11:43:14;;;;;;;;;;;6.40;99.90;;;;;;5007756;28;19979;-70
2021/11/15 11:45:41;;;;;;;;;;;6.40;99.90;;;;;;5028949;28;20624;-69
2021/11/15 11:48:06;;;;;;;;;;;6.40;99.90;;;;;;5011564;28;19913;-69
2021/11/15 11:50:33;;;;;;;;;;;6.40;99.90;;;;;;5024619;28;19971;-72
2021/11/15 11:53:05;;;;;;;;;;;6.50;99.90;;;;;;5025800;28;19921;-71
2021/11/15 11:55:33;;;;;;;;;;;6.50;99.90;;;;;;5027271;28;19917;-70
2021/11/15 11:58:17;;;;;;;;;;;6.50;99.90;;;;;;5026319;28;19925;-69
2021/11/15 12:00:45;;;;;;;;;;;6.50;99.90;;;;;;5011609;28;20292;-70
2021/11/15 12:03:11;;;;;;;;;;;6.50;99.90;;;;;;5025376;28;20235;-72
2021/11/15 12:05:36;;;;;;;;;;;6.50;99.90;;;;;;5012353;28;20279;-71
2021/11/15 12:08:04;;;;;;;;;;;6.50;99.90;;;;;;5024268;28;20724;-70
2021/11/15 12:10:36;;;;;;;;;;;6.50;99.90;;;;;;5008878;28;20883;-72
2021/11/15 12:13:03;;;;;;;;;;;6.50;99.90;;;;;;5025862;28;19917;-71
2021/11/15 12:15:29;;;;;;;;;;;6.50;99.90;;;;;;5009873;28;19965;-70
2021/11/15 12:18:04;;;;;;;;;;;6.50;99.90;;;;;;5050056;23;19929;-69
2021/11/15 12:20:30;;;;;;;;;;;6.50;99.90;;;;;;5026653;28;19917;-70
2021/11/15 12:22:57;;;;;;;;;;;6.40;99.90;;;;;;5026630;28;19958;-70
2021/11/15 12:25:25;;;;;;;;;;;6.50;99.90;;;;;;5010202;28;19913;-71
2021/11/15 12:27:52;;;;;;;;;;;6.50;99.90;;;;;;5026997;28;19921;-69
2021/11/15 12:30:18;;;;;;;;;;;6.60;99.90;;;;;;5009825;28;19913;-70
2021/11/15 12:32:44;;;;;;;;;;;6.60;99.90;;;;;;5023801;28;19917;-69
2021/11/15 12:35:10;;;;;;;;;;;6.50;99.90;;;;;;5026861;28;19970;-69
2021/11/15 12:37:38;;;;;;;;;;;6.50;99.90;;;;;;5023925;28;20434;-69
2021/11/15 12:40:04;;;;;;;;;;;6.50;99.90;;;;;;5027695;28;19913;-69
2021/11/15 12:42:30;;;;;;;;;;;6.50;99.90;;;;;;5008743;28;20620;-70
2021/11/15 12:45:11;;;;;;;;;;;6.50;99.90;;;;;;5028011;28;20011;-69
2021/11/15 12:47:45;;;;;;;;;;;6.50;99.90;;;;;;5026467;28;19924;-69
2021/11/15 12:50:18;;;;;;;;;;;6.50;99.90;;;;;;5021944;28;19913;-71
2021/11/15 12:52:50;;;;;;;;;;;6.50;99.90;;;;;;5023337;28;20812;-70
2021/11/15 12:55:17;;;;;;;;;;;6.50;99.90;;;;;;5011799;28;19914;-69
2021/11/15 12:57:47;;;;;;;;;;;6.50;99.90;;;;;;5009786;28;19924;-68
2021/11/15 13:00:14;;;;;;;;;;;6.50;99.90;;;;;;5026704;28;19929;-70
2021/11/15 13:02:41;;;;;;;;;;;6.60;99.90;;;;;;5025810;28;19974;-69
2021/11/15 13:05:07;;;;;;;;;;;6.60;99.90;;;;;;5008146;28;19956;-70
2021/11/15 13:07:33;;;;;;;;;;;6.50;99.90;;;;;;5024126;28;20031;-71
2021/11/15 13:09:59;;;;;;;;;;;6.50;99.90;;;;;;5024504;28;20427;-69
2021/11/15 13:12:26;;;;;;;;;;;6.50;99.90;;;;;;5025025;28;19917;-71
2021/11/15 13:14:52;;;;;;;;;;;6.50;99.90;;;;;;5026579;28;20338;-69
2021/11/15 13:17:20;;;;;;;;;;;6.50;99.90;;;;;;5024330;28;19971;-72
2021/11/15 13:19:46;;;;;;;;;;;6.50;99.90;;;;;;5025984;28;19963;-70
2021/11/15 13:22:13;;;;;;;;;;;6.40;99.90;;;;;;5023096;28;20058;-70
2021/11/15 13:24:41;;;;;;;;;;;6.40;99.90;;;;;;5009357;28;20056;-70
2021/11/15 13:27:07;;;;;;;;;;;6.40;99.90;;;;;;5026365;28;19913;-70
2021/11/15 13:29:33;;;;;;;;;;;6.40;99.90;;;;;;5025795;28;20257;-71
2021/11/15 13:31:58;;;;;;;;;;;6.30;99.90;;;;;;5026432;28;19910;-71
2021/11/15 13:34:24;;;;;;;;;;;6.30;99.90;;;;;;5023176;28;19913;-71
2021/11/15 13:36:50;;;;;;;;;;;6.30;99.90;;;;;;5024080;28;19920;-70
2021/11/15 13:39:15;;;;;;;;;;;6.30;99.90;;;;;;5022876;28;19917;-70
2021/11/15 13:41:41;;;;;;;;;;;6.40;99.90;;;;;;5027088;28;19913;-70
2021/11/15 13:44:07;;;;;;;;;;;6.30;99.90;;;;;;5027135;28;19909;-71
2021/11/15 13:46:32;;;;;;;;;;;6.40;99.90;;;;;;5027124;28;19917;-70
2021/11/15 13:48:58;;;;;;;;;;;6.40;99.90;;;;;;5023062;28;19967;-70
2021/11/15 13:51:24;;;;;;;;;;;6.40;99.90;;;;;;5025245;28;19964;-69
2021/11/15 13:53:50;;;;;;;;;;;6.40;99.90;;;;;;5022668;28;20010;-68
2021/11/15 13:56:15;;;;;;;;;;;6.40;99.90;;;;;;5024039;28;19917;-67
2021/11/15 13:58:41;;;;;;;;;;;6.40;99.90;;;;;;5026755;28;19924;-70
2021/11/15 14:01:09;;;;;;;;;;;6.40;99.90;;;;;;5024521;28;19921;-71
2021/11/15 14:03:36;;;;;;;;;;;6.40;99.90;;;;;;5028589;28;19917;-71
2021/11/15 14:06:02;;;;;;;;;;;6.30;99.90;;;;;;5029522;28;20354;-68
2021/11/15 14:08:28;;;;;;;;;;;6.30;99.90;;;;;;5011400;28;19917;-70
2021/11/15 14:10:56;;;;;;;;;;;6.30;99.90;;;;;;5029198;28;19917;-69
2021/11/15 14:13:21;;;;;;;;;;;6.40;99.90;;;;;;5027819;28;20347;-70
2021/11/15 14:15:47;;;;;;;;;;;6.40;99.90;;;;;;5027862;28;19913;-70
2021/11/15 14:18:12;;;;;;;;;;;6.30;99.90;;;;;;5029453;28;19925;-70
2021/11/15 14:20:37;;;;;;;;;;;6.30;99.90;;;;;;5029529;28;20279;-70
2021/11/15 14:23:03;;;;;;;;;;;6.30;99.90;;;;;;5024226;28;20418;-69
2021/11/15 14:25:28;;;;;;;;;;;6.30;99.90;;;;;;5029563;28;20415;-68
2021/11/15 14:27:54;;;;;;;;;;;6.30;99.90;;;;;;5028130;28;19921;-68
2021/11/15 14:30:19;;;;;;;;;;;6.30;99.90;;;;;;5028962;28;20291;-68
2021/11/15 14:32:45;;;;;;;;;;;6.30;99.90;;;;;;5026292;28;19917;-71
2021/11/15 14:35:10;;;;;;;;;;;6.30;99.90;;;;;;5010216;28;20022;-71
2021/11/15 14:37:36;;;;;;;;;;;6.30;99.90;;;;;;5025063;28;19956;-72